sensor_id;sensor_type;location;lat;lon;timestamp;P1;durP1;ratioP1;P2;durP2;ratioP2
41966;SDS011;27656;53.068;8.818;2023-03-31T00:01:38;12.53;;;3.37;;
41966;SDS011;27656;53.068;8.818;2023-03-31T00:04:08;20.60;;;3.80;;
41966;SDS011;27656;53.068;8.818;2023-03-31T00:06:39;10.93;;;3.43;;
41966;SDS011;27656;53.068;8.818;2023-03-31T00:09:15;14.00;;;3.70;;
41966;SDS011;27656;53.068;8.818;2023-03-31T00:11:47;12.60;;;3.73;;
41966;SDS011;27656;53.068;8.818;2023-03-31T00:14:15;12.57;;;3.37;;
41966;SDS011;27656;53.068;8.818;2023-03-31T00:16:43;14.57;;;4.20;;
41966;SDS011;27656;53.068;8.818;2023-03-31T00:19:11;10.63;;;3.50;;
41966;SDS011;27656;53.068;8.818;2023-03-31T00:21:44;17.10;;;4.30;;
41966;SDS011;27656;53.068;8.818;2023-03-31T00:24:11;9.73;;;4.13;;
41966;SDS011;27656;53.068;8.818;2023-03-31T00:26:38;14.97;;;4.57;;
41966;SDS011;27656;53.068;8.818;2023-03-31T00:29:05;12.40;;;4.00;;
41966;SDS011;27656;53.068;8.818;2023-03-31T00:31:33;14.63;;;3.80;;
41966;SDS011;27656;53.068;8.818;2023-03-31T00:34:00;13.60;;;4.57;;
41966;SDS011;27656;53.068;8.818;2023-03-31T00:36:26;13.73;;;4.17;;
41966;SDS011;27656;53.068;8.818;2023-03-31T00:38:53;13.00;;;4.67;;
41966;SDS011;27656;53.068;8.818;2023-03-31T00:41:21;13.93;;;3.67;;
41966;SDS011;27656;53.068;8.818;2023-03-31T00:46:32;11.17;;;3.10;;
41966;SDS011;27656;53.068;8.818;2023-03-31T00:49:02;19.97;;;4.43;;
41966;SDS011;27656;53.068;8.818;2023-03-31T00:51:31;13.73;;;4.60;;
41966;SDS011;27656;53.068;8.818;2023-03-31T00:54:00;12.83;;;3.60;;
41966;SDS011;27656;53.068;8.818;2023-03-31T00:56:32;16.60;;;4.50;;
41966;SDS011;27656;53.068;8.818;2023-03-31T00:59:01;9.43;;;3.90;;
41966;SDS011;27656;53.068;8.818;2023-03-31T01:01:29;11.23;;;3.67;;
41966;SDS011;27656;53.068;8.818;2023-03-31T01:03:56;12.60;;;3.70;;
41966;SDS011;27656;53.068;8.818;2023-03-31T01:06:24;13.37;;;3.90;;
41966;SDS011;27656;53.068;8.818;2023-03-31T01:08:50;10.97;;;3.80;;
41966;SDS011;27656;53.068;8.818;2023-03-31T01:11:18;12.37;;;3.67;;
41966;SDS011;27656;53.068;8.818;2023-03-31T01:13:46;13.63;;;3.53;;
41966;SDS011;27656;53.068;8.818;2023-03-31T01:16:16;9.37;;;3.50;;
41966;SDS011;27656;53.068;8.818;2023-03-31T01:18:43;14.17;;;3.70;;
41966;SDS011;27656;53.068;8.818;2023-03-31T01:24:24;13.63;;;3.47;;
41966;SDS011;27656;53.068;8.818;2023-03-31T01:41:25;14.27;;;3.70;;
41966;SDS011;27656;53.068;8.818;2023-03-31T01:44:15;15.83;;;4.00;;
41966;SDS011;27656;53.068;8.818;2023-03-31T01:46:53;11.40;;;3.80;;
41966;SDS011;27656;53.068;8.818;2023-03-31T01:49:33;10.73;;;3.80;;
41966;SDS011;27656;53.068;8.818;2023-03-31T01:52:20;15.57;;;3.63;;
41966;SDS011;27656;53.068;8.818;2023-03-31T01:54:54;11.73;;;3.63;;
41966;SDS011;27656;53.068;8.818;2023-03-31T01:57:46;16.87;;;4.83;;
41966;SDS011;27656;53.068;8.818;2023-03-31T02:00:15;13.73;;;4.13;;
41966;SDS011;27656;53.068;8.818;2023-03-31T02:05:15;11.40;;;3.50;;
41966;SDS011;27656;53.068;8.818;2023-03-31T02:07:49;14.10;;;3.70;;
41966;SDS011;27656;53.068;8.818;2023-03-31T02:10:21;12.53;;;3.60;;
41966;SDS011;27656;53.068;8.818;2023-03-31T02:12:48;15.43;;;3.13;;
41966;SDS011;27656;53.068;8.818;2023-03-31T02:15:18;11.63;;;3.57;;
41966;SDS011;27656;53.068;8.818;2023-03-31T02:17:48;14.47;;;3.60;;
41966;SDS011;27656;53.068;8.818;2023-03-31T02:20:17;12.73;;;4.50;;
41966;SDS011;27656;53.068;8.818;2023-03-31T02:22:46;12.33;;;4.17;;
41966;SDS011;27656;53.068;8.818;2023-03-31T02:25:16;8.90;;;3.57;;
41966;SDS011;27656;53.068;8.818;2023-03-31T02:28:04;13.60;;;4.03;;
41966;SDS011;27656;53.068;8.818;2023-03-31T02:30:42;16.23;;;4.07;;
41966;SDS011;27656;53.068;8.818;2023-03-31T02:33:11;12.53;;;3.87;;
41966;SDS011;27656;53.068;8.818;2023-03-31T02:35:37;18.63;;;4.43;;
41966;SDS011;27656;53.068;8.818;2023-03-31T02:38:04;13.57;;;3.47;;
41966;SDS011;27656;53.068;8.818;2023-03-31T02:40:31;15.20;;;4.07;;
41966;SDS011;27656;53.068;8.818;2023-03-31T02:42:58;8.90;;;3.57;;
41966;SDS011;27656;53.068;8.818;2023-03-31T02:45:42;13.83;;;3.37;;
41966;SDS011;27656;53.068;8.818;2023-03-31T02:48:23;11.10;;;3.57;;
41966;SDS011;27656;53.068;8.818;2023-03-31T02:51:03;11.73;;;3.50;;
41966;SDS011;27656;53.068;8.818;2023-03-31T02:56:42;11.97;;;3.37;;
41966;SDS011;27656;53.068;8.818;2023-03-31T02:59:19;9.27;;;3.13;;
41966;SDS011;27656;53.068;8.818;2023-03-31T03:02:05;11.13;;;3.70;;
41966;SDS011;27656;53.068;8.818;2023-03-31T03:07:33;13.57;;;3.17;;
41966;SDS011;27656;53.068;8.818;2023-03-31T03:16:03;14.40;;;3.03;;
41966;SDS011;27656;53.068;8.818;2023-03-31T03:18:39;11.00;;;3.53;;
41966;SDS011;27656;53.068;8.818;2023-03-31T03:21:05;12.57;;;3.70;;
41966;SDS011;27656;53.068;8.818;2023-03-31T03:23:32;11.50;;;3.40;;
41966;SDS011;27656;53.068;8.818;2023-03-31T03:25:59;10.63;;;3.10;;
41966;SDS011;27656;53.068;8.818;2023-03-31T03:28:25;11.30;;;2.90;;
41966;SDS011;27656;53.068;8.818;2023-03-31T03:30:52;9.87;;;2.70;;
41966;SDS011;27656;53.068;8.818;2023-03-31T03:33:18;12.67;;;2.97;;
41966;SDS011;27656;53.068;8.818;2023-03-31T03:35:45;11.30;;;3.00;;
41966;SDS011;27656;53.068;8.818;2023-03-31T03:38:11;11.40;;;2.70;;
41966;SDS011;27656;53.068;8.818;2023-03-31T03:40:37;11.83;;;2.83;;
41966;SDS011;27656;53.068;8.818;2023-03-31T03:43:04;9.30;;;2.70;;
41966;SDS011;27656;53.068;8.818;2023-03-31T03:45:30;12.27;;;2.70;;
41966;SDS011;27656;53.068;8.818;2023-03-31T03:47:57;17.27;;;3.50;;
41966;SDS011;27656;53.068;8.818;2023-03-31T03:50:23;13.20;;;2.90;;
41966;SDS011;27656;53.068;8.818;2023-03-31T03:52:50;14.07;;;3.33;;
41966;SDS011;27656;53.068;8.818;2023-03-31T03:55:16;11.03;;;2.60;;
41966;SDS011;27656;53.068;8.818;2023-03-31T03:57:43;10.27;;;3.00;;
41966;SDS011;27656;53.068;8.818;2023-03-31T04:00:09;9.00;;;2.70;;
41966;SDS011;27656;53.068;8.818;2023-03-31T04:02:37;11.80;;;2.50;;
41966;SDS011;27656;53.068;8.818;2023-03-31T04:05:05;10.63;;;2.50;;
41966;SDS011;27656;53.068;8.818;2023-03-31T04:07:31;10.63;;;2.70;;
41966;SDS011;27656;53.068;8.818;2023-03-31T04:09:58;8.67;;;2.70;;
41966;SDS011;27656;53.068;8.818;2023-03-31T04:12:24;13.20;;;2.73;;
41966;SDS011;27656;53.068;8.818;2023-03-31T04:14:51;12.57;;;3.37;;
41966;SDS011;27656;53.068;8.818;2023-03-31T04:17:17;15.53;;;3.00;;
41966;SDS011;27656;53.068;8.818;2023-03-31T04:19:44;11.33;;;3.30;;
41966;SDS011;27656;53.068;8.818;2023-03-31T04:22:15;11.63;;;3.10;;
41966;SDS011;27656;53.068;8.818;2023-03-31T04:24:45;10.43;;;3.07;;
41966;SDS011;27656;53.068;8.818;2023-03-31T04:27:17;10.33;;;2.93;;
41966;SDS011;27656;53.068;8.818;2023-03-31T04:29:46;12.07;;;3.30;;
41966;SDS011;27656;53.068;8.818;2023-03-31T04:32:20;9.40;;;3.77;;
41966;SDS011;27656;53.068;8.818;2023-03-31T04:34:47;18.37;;;3.90;;
41966;SDS011;27656;53.068;8.818;2023-03-31T04:37:16;13.10;;;3.87;;
41966;SDS011;27656;53.068;8.818;2023-03-31T04:39:42;11.17;;;3.57;;
41966;SDS011;27656;53.068;8.818;2023-03-31T04:42:11;14.47;;;4.20;;
41966;SDS011;27656;53.068;8.818;2023-03-31T04:44:38;11.53;;;3.57;;
41966;SDS011;27656;53.068;8.818;2023-03-31T04:47:04;13.73;;;3.83;;
41966;SDS011;27656;53.068;8.818;2023-03-31T04:49:32;11.00;;;4.30;;
41966;SDS011;27656;53.068;8.818;2023-03-31T04:51:58;13.67;;;4.73;;
41966;SDS011;27656;53.068;8.818;2023-03-31T04:54:25;9.30;;;3.83;;
41966;SDS011;27656;53.068;8.818;2023-03-31T04:56:51;13.03;;;4.43;;
41966;SDS011;27656;53.068;8.818;2023-03-31T04:59:18;12.10;;;4.93;;
41966;SDS011;27656;53.068;8.818;2023-03-31T05:01:44;17.50;;;5.30;;
41966;SDS011;27656;53.068;8.818;2023-03-31T05:04:11;16.27;;;5.47;;
41966;SDS011;27656;53.068;8.818;2023-03-31T05:06:37;18.23;;;5.70;;
41966;SDS011;27656;53.068;8.818;2023-03-31T05:09:04;18.10;;;5.40;;
41966;SDS011;27656;53.068;8.818;2023-03-31T05:11:31;13.83;;;5.63;;
41966;SDS011;27656;53.068;8.818;2023-03-31T05:13:58;15.33;;;6.00;;
41966;SDS011;27656;53.068;8.818;2023-03-31T05:16:24;16.90;;;6.53;;
41966;SDS011;27656;53.068;8.818;2023-03-31T05:18:50;17.63;;;6.77;;
41966;SDS011;27656;53.068;8.818;2023-03-31T05:21:18;16.90;;;6.37;;
41966;SDS011;27656;53.068;8.818;2023-03-31T05:23:45;12.87;;;5.83;;
41966;SDS011;27656;53.068;8.818;2023-03-31T05:26:12;21.60;;;6.60;;
41966;SDS011;27656;53.068;8.818;2023-03-31T05:28:39;14.50;;;5.50;;
41966;SDS011;27656;53.068;8.818;2023-03-31T05:31:07;13.50;;;6.40;;
41966;SDS011;27656;53.068;8.818;2023-03-31T05:33:34;12.60;;;6.50;;
41966;SDS011;27656;53.068;8.818;2023-03-31T05:36:06;14.40;;;5.80;;
41966;SDS011;27656;53.068;8.818;2023-03-31T05:38:34;12.93;;;6.00;;
41966;SDS011;27656;53.068;8.818;2023-03-31T05:41:01;16.30;;;6.80;;
41966;SDS011;27656;53.068;8.818;2023-03-31T05:43:28;13.87;;;6.83;;
41966;SDS011;27656;53.068;8.818;2023-03-31T05:45:54;16.63;;;6.17;;
41966;SDS011;27656;53.068;8.818;2023-03-31T05:48:21;9.83;;;5.60;;
41966;SDS011;27656;53.068;8.818;2023-03-31T05:50:47;10.03;;;6.07;;
41966;SDS011;27656;53.068;8.818;2023-03-31T05:53:14;18.57;;;6.20;;
41966;SDS011;27656;53.068;8.818;2023-03-31T05:55:40;15.97;;;6.27;;
41966;SDS011;27656;53.068;8.818;2023-03-31T05:58:06;10.07;;;6.07;;
41966;SDS011;27656;53.068;8.818;2023-03-31T06:00:34;15.43;;;7.20;;
41966;SDS011;27656;53.068;8.818;2023-03-31T06:03:01;12.10;;;6.10;;
41966;SDS011;27656;53.068;8.818;2023-03-31T06:05:28;16.57;;;6.73;;
41966;SDS011;27656;53.068;8.818;2023-03-31T06:07:56;13.83;;;6.23;;
41966;SDS011;27656;53.068;8.818;2023-03-31T06:10:22;15.60;;;7.00;;
41966;SDS011;27656;53.068;8.818;2023-03-31T06:12:49;12.57;;;6.10;;
41966;SDS011;27656;53.068;8.818;2023-03-31T06:15:15;14.67;;;7.00;;
41966;SDS011;27656;53.068;8.818;2023-03-31T06:17:42;14.47;;;6.73;;
41966;SDS011;27656;53.068;8.818;2023-03-31T06:20:08;14.17;;;6.60;;
41966;SDS011;27656;53.068;8.818;2023-03-31T06:22:52;12.70;;;6.57;;
41966;SDS011;27656;53.068;8.818;2023-03-31T06:25:19;16.33;;;6.90;;
41966;SDS011;27656;53.068;8.818;2023-03-31T06:27:45;11.00;;;6.83;;
41966;SDS011;27656;53.068;8.818;2023-03-31T06:30:12;13.93;;;7.33;;
41966;SDS011;27656;53.068;8.818;2023-03-31T06:32:38;14.40;;;6.83;;
41966;SDS011;27656;53.068;8.818;2023-03-31T06:35:05;14.40;;;6.83;;
41966;SDS011;27656;53.068;8.818;2023-03-31T06:37:32;15.87;;;6.87;;
41966;SDS011;27656;53.068;8.818;2023-03-31T06:39:58;17.30;;;7.80;;
41966;SDS011;27656;53.068;8.818;2023-03-31T06:42:24;14.53;;;7.53;;
41966;SDS011;27656;53.068;8.818;2023-03-31T06:44:51;15.03;;;7.77;;
41966;SDS011;27656;53.068;8.818;2023-03-31T06:47:17;14.27;;;7.07;;
41966;SDS011;27656;53.068;8.818;2023-03-31T06:49:44;13.30;;;7.07;;
41966;SDS011;27656;53.068;8.818;2023-03-31T06:52:11;14.33;;;7.37;;
41966;SDS011;27656;53.068;8.818;2023-03-31T06:54:37;12.43;;;6.87;;
41966;SDS011;27656;53.068;8.818;2023-03-31T06:57:04;17.50;;;7.83;;
41966;SDS011;27656;53.068;8.818;2023-03-31T06:59:30;14.20;;;6.73;;
41966;SDS011;27656;53.068;8.818;2023-03-31T07:01:57;10.70;;;6.07;;
41966;SDS011;27656;53.068;8.818;2023-03-31T07:04:24;11.33;;;6.57;;
41966;SDS011;27656;53.068;8.818;2023-03-31T07:06:50;10.20;;;6.13;;
41966;SDS011;27656;53.068;8.818;2023-03-31T07:09:16;12.20;;;5.07;;
41966;SDS011;27656;53.068;8.818;2023-03-31T07:11:43;10.10;;;5.53;;
41966;SDS011;27656;53.068;8.818;2023-03-31T07:14:10;9.40;;;5.37;;
41966;SDS011;27656;53.068;8.818;2023-03-31T07:16:36;9.47;;;5.23;;
41966;SDS011;27656;53.068;8.818;2023-03-31T07:19:03;10.17;;;5.70;;
41966;SDS011;27656;53.068;8.818;2023-03-31T07:21:31;9.20;;;4.60;;
41966;SDS011;27656;53.068;8.818;2023-03-31T07:23:57;8.87;;;5.17;;
41966;SDS011;27656;53.068;8.818;2023-03-31T07:26:24;7.90;;;5.00;;
41966;SDS011;27656;53.068;8.818;2023-03-31T07:28:51;8.80;;;5.13;;
41966;SDS011;27656;53.068;8.818;2023-03-31T07:31:17;12.50;;;5.87;;
41966;SDS011;27656;53.068;8.818;2023-03-31T07:33:44;11.67;;;5.70;;
41966;SDS011;27656;53.068;8.818;2023-03-31T07:36:10;9.10;;;5.77;;
41966;SDS011;27656;53.068;8.818;2023-03-31T07:38:40;13.63;;;6.10;;
41966;SDS011;27656;53.068;8.818;2023-03-31T07:41:12;13.27;;;5.97;;
41966;SDS011;27656;53.068;8.818;2023-03-31T07:43:39;11.17;;;5.90;;
41966;SDS011;27656;53.068;8.818;2023-03-31T07:46:06;11.07;;;6.00;;
41966;SDS011;27656;53.068;8.818;2023-03-31T07:48:39;10.70;;;5.93;;
41966;SDS011;27656;53.068;8.818;2023-03-31T07:51:05;9.33;;;5.87;;
41966;SDS011;27656;53.068;8.818;2023-03-31T07:53:32;9.13;;;5.50;;
41966;SDS011;27656;53.068;8.818;2023-03-31T07:55:59;9.07;;;6.13;;
41966;SDS011;27656;53.068;8.818;2023-03-31T07:58:25;10.90;;;5.77;;
41966;SDS011;27656;53.068;8.818;2023-03-31T08:00:52;8.90;;;5.90;;
41966;SDS011;27656;53.068;8.818;2023-03-31T08:03:18;7.33;;;5.70;;
41966;SDS011;27656;53.068;8.818;2023-03-31T08:05:45;9.30;;;5.50;;
41966;SDS011;27656;53.068;8.818;2023-03-31T08:08:11;10.13;;;5.40;;
41966;SDS011;27656;53.068;8.818;2023-03-31T08:10:38;9.57;;;5.47;;
41966;SDS011;27656;53.068;8.818;2023-03-31T08:13:04;11.50;;;5.23;;
41966;SDS011;27656;53.068;8.818;2023-03-31T08:15:30;11.23;;;4.83;;
41966;SDS011;27656;53.068;8.818;2023-03-31T08:17:57;9.90;;;4.90;;
41966;SDS011;27656;53.068;8.818;2023-03-31T08:20:23;8.07;;;4.50;;
41966;SDS011;27656;53.068;8.818;2023-03-31T08:22:50;8.33;;;4.40;;
41966;SDS011;27656;53.068;8.818;2023-03-31T08:25:17;9.33;;;5.10;;
41966;SDS011;27656;53.068;8.818;2023-03-31T08:27:43;8.10;;;4.77;;
41966;SDS011;27656;53.068;8.818;2023-03-31T08:30:12;8.37;;;4.60;;
41966;SDS011;27656;53.068;8.818;2023-03-31T08:32:38;8.20;;;4.40;;
41966;SDS011;27656;53.068;8.818;2023-03-31T08:35:05;8.60;;;4.70;;
41966;SDS011;27656;53.068;8.818;2023-03-31T08:37:32;8.63;;;4.30;;
41966;SDS011;27656;53.068;8.818;2023-03-31T08:39:58;8.57;;;3.97;;
41966;SDS011;27656;53.068;8.818;2023-03-31T08:42:33;10.67;;;5.03;;
41966;SDS011;27656;53.068;8.818;2023-03-31T08:45:08;7.50;;;3.83;;
41966;SDS011;27656;53.068;8.818;2023-03-31T08:47:37;10.30;;;3.97;;
41966;SDS011;27656;53.068;8.818;2023-03-31T08:50:05;8.87;;;3.93;;
41966;SDS011;27656;53.068;8.818;2023-03-31T08:52:39;8.20;;;3.87;;
41966;SDS011;27656;53.068;8.818;2023-03-31T08:55:11;10.83;;;4.13;;
41966;SDS011;27656;53.068;8.818;2023-03-31T08:57:44;9.07;;;4.17;;
41966;SDS011;27656;53.068;8.818;2023-03-31T09:00:16;5.53;;;3.47;;
41966;SDS011;27656;53.068;8.818;2023-03-31T09:03:00;8.30;;;3.33;;
41966;SDS011;27656;53.068;8.818;2023-03-31T09:05:41;6.67;;;3.63;;
41966;SDS011;27656;53.068;8.818;2023-03-31T09:08:44;6.93;;;3.27;;
41966;SDS011;27656;53.068;8.818;2023-03-31T09:11:18;7.10;;;3.40;;
41966;SDS011;27656;53.068;8.818;2023-03-31T09:16:37;7.63;;;3.50;;
41966;SDS011;27656;53.068;8.818;2023-03-31T09:19:53;9.23;;;3.43;;
41966;SDS011;27656;53.068;8.818;2023-03-31T09:22:12;9.00;;;3.53;;
41966;SDS011;27656;53.068;8.818;2023-03-31T09:24:45;6.97;;;3.50;;
41966;SDS011;27656;53.068;8.818;2023-03-31T09:27:15;8.30;;;3.30;;
41966;SDS011;27656;53.068;8.818;2023-03-31T09:29:52;10.80;;;4.90;;
41966;SDS011;27656;53.068;8.818;2023-03-31T09:32:25;11.70;;;4.83;;
41966;SDS011;27656;53.068;8.818;2023-03-31T09:34:59;9.47;;;4.73;;
41966;SDS011;27656;53.068;8.818;2023-03-31T09:37:31;8.47;;;4.10;;
41966;SDS011;27656;53.068;8.818;2023-03-31T09:39:58;7.67;;;4.00;;
41966;SDS011;27656;53.068;8.818;2023-03-31T09:42:26;10.43;;;4.27;;
41966;SDS011;27656;53.068;8.818;2023-03-31T09:44:52;10.30;;;3.70;;
41966;SDS011;27656;53.068;8.818;2023-03-31T09:47:23;8.97;;;3.93;;
41966;SDS011;27656;53.068;8.818;2023-03-31T09:49:54;7.87;;;5.13;;
41966;SDS011;27656;53.068;8.818;2023-03-31T09:55:01;9.37;;;4.83;;
41966;SDS011;27656;53.068;8.818;2023-03-31T09:57:31;12.47;;;5.13;;
41966;SDS011;27656;53.068;8.818;2023-03-31T10:00:01;7.23;;;4.63;;
41966;SDS011;27656;53.068;8.818;2023-03-31T10:07:52;6.47;;;3.97;;
41966;SDS011;27656;53.068;8.818;2023-03-31T10:10:34;8.40;;;3.43;;
41966;SDS011;27656;53.068;8.818;2023-03-31T10:13:00;10.87;;;3.27;;
41966;SDS011;27656;53.068;8.818;2023-03-31T10:15:35;8.43;;;2.97;;
41966;SDS011;27656;53.068;8.818;2023-03-31T10:18:04;5.27;;;2.40;;
41966;SDS011;27656;53.068;8.818;2023-03-31T10:20:37;8.67;;;2.60;;
41966;SDS011;27656;53.068;8.818;2023-03-31T10:25:43;5.03;;;2.63;;
41966;SDS011;27656;53.068;8.818;2023-03-31T10:28:14;8.47;;;2.80;;
41966;SDS011;27656;53.068;8.818;2023-03-31T10:30:46;7.90;;;2.77;;
41966;SDS011;27656;53.068;8.818;2023-03-31T10:33:15;4.47;;;2.60;;
41966;SDS011;27656;53.068;8.818;2023-03-31T10:35:48;8.43;;;2.60;;
41966;SDS011;27656;53.068;8.818;2023-03-31T10:38:24;5.57;;;2.57;;
41966;SDS011;27656;53.068;8.818;2023-03-31T10:40:53;5.27;;;1.97;;
41966;SDS011;27656;53.068;8.818;2023-03-31T10:43:28;6.90;;;2.20;;
41966;SDS011;27656;53.068;8.818;2023-03-31T10:45:56;4.93;;;2.23;;
41966;SDS011;27656;53.068;8.818;2023-03-31T10:48:29;7.07;;;2.10;;
41966;SDS011;27656;53.068;8.818;2023-03-31T10:50:59;5.17;;;2.20;;
41966;SDS011;27656;53.068;8.818;2023-03-31T10:53:26;5.20;;;2.60;;
41966;SDS011;27656;53.068;8.818;2023-03-31T11:04:48;6.83;;;2.40;;
41966;SDS011;27656;53.068;8.818;2023-03-31T11:15:53;6.20;;;2.47;;
41966;SDS011;27656;53.068;8.818;2023-03-31T11:23:43;5.77;;;2.53;;
41966;SDS011;27656;53.068;8.818;2023-03-31T11:29:02;3.73;;;2.33;;
41966;SDS011;27656;53.068;8.818;2023-03-31T11:39:41;5.03;;;2.27;;
41966;SDS011;27656;53.068;8.818;2023-03-31T11:42:19;4.00;;;2.13;;
41966;SDS011;27656;53.068;8.818;2023-03-31T11:44:57;3.93;;;1.87;;
41966;SDS011;27656;53.068;8.818;2023-03-31T11:47:29;3.17;;;1.90;;
41966;SDS011;27656;53.068;8.818;2023-03-31T11:50:08;2.10;;;1.50;;
41966;SDS011;27656;53.068;8.818;2023-03-31T11:52:38;3.33;;;1.60;;
41966;SDS011;27656;53.068;8.818;2023-03-31T11:55:18;2.13;;;1.43;;
41966;SDS011;27656;53.068;8.818;2023-03-31T11:57:49;0.93;;;0.67;;
41966;SDS011;27656;53.068;8.818;2023-03-31T12:00:22;0.40;;;0.40;;
41966;SDS011;27656;53.068;8.818;2023-03-31T12:02:54;1.03;;;0.57;;
41966;SDS011;27656;53.068;8.818;2023-03-31T12:05:25;1.33;;;0.60;;
41966;SDS011;27656;53.068;8.818;2023-03-31T12:08:06;1.13;;;0.70;;
41966;SDS011;27656;53.068;8.818;2023-03-31T12:14:26;0.90;;;0.70;;
41966;SDS011;27656;53.068;8.818;2023-03-31T12:16:46;1.43;;;0.80;;
41966;SDS011;27656;53.068;8.818;2023-03-31T12:22:38;1.43;;;0.70;;
41966;SDS011;27656;53.068;8.818;2023-03-31T12:25:15;1.00;;;0.77;;
41966;SDS011;27656;53.068;8.818;2023-03-31T12:27:48;2.80;;;0.93;;
41966;SDS011;27656;53.068;8.818;2023-03-31T12:30:23;2.27;;;1.00;;
41966;SDS011;27656;53.068;8.818;2023-03-31T12:32:55;1.63;;;0.93;;
41966;SDS011;27656;53.068;8.818;2023-03-31T12:35:28;2.87;;;0.80;;
41966;SDS011;27656;53.068;8.818;2023-03-31T12:43:21;2.40;;;0.70;;
41966;SDS011;27656;53.068;8.818;2023-03-31T12:48:57;1.93;;;1.20;;
41966;SDS011;27656;53.068;8.818;2023-03-31T12:51:44;1.93;;;1.00;;
41966;SDS011;27656;53.068;8.818;2023-03-31T12:54:24;4.10;;;1.17;;
41966;SDS011;27656;53.068;8.818;2023-03-31T12:57:21;1.70;;;0.90;;
41966;SDS011;27656;53.068;8.818;2023-03-31T13:02:32;2.27;;;0.90;;
41966;SDS011;27656;53.068;8.818;2023-03-31T13:04:59;2.43;;;1.20;;
41966;SDS011;27656;53.068;8.818;2023-03-31T13:08:04;2.30;;;1.00;;
41966;SDS011;27656;53.068;8.818;2023-03-31T13:10:31;2.10;;;1.13;;
41966;SDS011;27656;53.068;8.818;2023-03-31T13:13:02;1.67;;;1.07;;
41966;SDS011;27656;53.068;8.818;2023-03-31T13:15:32;1.70;;;1.23;;
41966;SDS011;27656;53.068;8.818;2023-03-31T13:17:59;2.00;;;1.00;;
41966;SDS011;27656;53.068;8.818;2023-03-31T13:20:34;1.43;;;1.00;;
41966;SDS011;27656;53.068;8.818;2023-03-31T13:23:23;2.13;;;1.20;;
41966;SDS011;27656;53.068;8.818;2023-03-31T13:25:51;2.43;;;1.17;;
41966;SDS011;27656;53.068;8.818;2023-03-31T13:33:30;1.67;;;0.80;;
41966;SDS011;27656;53.068;8.818;2023-03-31T13:50:24;3.07;;;1.57;;
41966;SDS011;27656;53.068;8.818;2023-03-31T13:53:04;2.47;;;1.37;;
41966;SDS011;27656;53.068;8.818;2023-03-31T14:06:39;4.10;;;1.30;;
41966;SDS011;27656;53.068;8.818;2023-03-31T14:09:11;2.20;;;1.10;;
41966;SDS011;27656;53.068;8.818;2023-03-31T14:11:44;1.93;;;1.13;;
41966;SDS011;27656;53.068;8.818;2023-03-31T14:14:13;3.83;;;1.10;;
41966;SDS011;27656;53.068;8.818;2023-03-31T14:16:48;2.63;;;1.10;;
41966;SDS011;27656;53.068;8.818;2023-03-31T14:22:21;3.17;;;1.03;;
41966;SDS011;27656;53.068;8.818;2023-03-31T14:37:54;2.93;;;1.00;;
41966;SDS011;27656;53.068;8.818;2023-03-31T14:40:21;2.47;;;1.07;;
41966;SDS011;27656;53.068;8.818;2023-03-31T14:42:48;2.13;;;0.97;;
41966;SDS011;27656;53.068;8.818;2023-03-31T14:48:08;4.23;;;1.10;;
41966;SDS011;27656;53.068;8.818;2023-03-31T14:50:41;2.00;;;1.07;;
41966;SDS011;27656;53.068;8.818;2023-03-31T14:53:15;3.87;;;1.23;;
41966;SDS011;27656;53.068;8.818;2023-03-31T14:55:43;3.30;;;1.67;;
41966;SDS011;27656;53.068;8.818;2023-03-31T14:58:16;3.90;;;1.30;;
41966;SDS011;27656;53.068;8.818;2023-03-31T15:00:49;4.57;;;1.27;;
41966;SDS011;27656;53.068;8.818;2023-03-31T15:03:17;3.57;;;1.20;;
41966;SDS011;27656;53.068;8.818;2023-03-31T15:05:43;5.40;;;1.80;;
41966;SDS011;27656;53.068;8.818;2023-03-31T15:08:21;3.80;;;1.63;;
41966;SDS011;27656;53.068;8.818;2023-03-31T15:10:51;4.67;;;1.50;;
41966;SDS011;27656;53.068;8.818;2023-03-31T15:13:37;5.27;;;1.70;;
41966;SDS011;27656;53.068;8.818;2023-03-31T15:16:18;5.43;;;1.40;;
41966;SDS011;27656;53.068;8.818;2023-03-31T15:18:45;4.00;;;1.53;;
41966;SDS011;27656;53.068;8.818;2023-03-31T15:21:18;3.73;;;1.27;;
41966;SDS011;27656;53.068;8.818;2023-03-31T15:23:46;6.23;;;1.83;;
41966;SDS011;27656;53.068;8.818;2023-03-31T15:26:12;5.53;;;1.40;;
41966;SDS011;27656;53.068;8.818;2023-03-31T15:28:51;4.90;;;1.30;;
41966;SDS011;27656;53.068;8.818;2023-03-31T15:31:19;4.73;;;1.27;;
41966;SDS011;27656;53.068;8.818;2023-03-31T15:33:46;2.70;;;1.30;;
41966;SDS011;27656;53.068;8.818;2023-03-31T15:36:13;5.50;;;1.50;;
41966;SDS011;27656;53.068;8.818;2023-03-31T15:38:40;4.40;;;1.70;;
41966;SDS011;27656;53.068;8.818;2023-03-31T15:41:10;4.27;;;1.37;;
41966;SDS011;27656;53.068;8.818;2023-03-31T15:43:43;3.97;;;1.33;;
41966;SDS011;27656;53.068;8.818;2023-03-31T15:46:18;5.57;;;1.30;;
41966;SDS011;27656;53.068;8.818;2023-03-31T15:48:51;3.97;;;1.50;;
41966;SDS011;27656;53.068;8.818;2023-03-31T15:51:23;3.80;;;1.23;;
41966;SDS011;27656;53.068;8.818;2023-03-31T15:53:52;2.70;;;1.20;;
41966;SDS011;27656;53.068;8.818;2023-03-31T15:59:01;4.83;;;1.47;;
41966;SDS011;27656;53.068;8.818;2023-03-31T16:01:30;3.03;;;1.30;;
41966;SDS011;27656;53.068;8.818;2023-03-31T16:04:00;4.73;;;1.40;;
41966;SDS011;27656;53.068;8.818;2023-03-31T16:06:33;2.27;;;0.93;;
41966;SDS011;27656;53.068;8.818;2023-03-31T16:09:04;2.13;;;1.13;;
41966;SDS011;27656;53.068;8.818;2023-03-31T16:11:55;4.63;;;1.40;;
41966;SDS011;27656;53.068;8.818;2023-03-31T16:14:28;3.17;;;1.37;;
41966;SDS011;27656;53.068;8.818;2023-03-31T16:17:09;3.53;;;1.50;;
41966;SDS011;27656;53.068;8.818;2023-03-31T16:19:59;4.20;;;1.73;;
41966;SDS011;27656;53.068;8.818;2023-03-31T16:22:36;3.57;;;1.63;;
41966;SDS011;27656;53.068;8.818;2023-03-31T16:25:10;5.80;;;1.73;;
41966;SDS011;27656;53.068;8.818;2023-03-31T16:27:39;6.87;;;1.70;;
41966;SDS011;27656;53.068;8.818;2023-03-31T16:30:16;4.43;;;1.87;;
41966;SDS011;27656;53.068;8.818;2023-03-31T16:33:02;10.27;;;1.93;;
41966;SDS011;27656;53.068;8.818;2023-03-31T16:35:36;4.83;;;1.67;;
41966;SDS011;27656;53.068;8.818;2023-03-31T16:38:08;7.30;;;2.60;;
41966;SDS011;27656;53.068;8.818;2023-03-31T16:40:36;9.40;;;3.03;;
41966;SDS011;27656;53.068;8.818;2023-03-31T16:43:15;2.93;;;1.80;;
41966;SDS011;27656;53.068;8.818;2023-03-31T16:45:56;6.20;;;1.90;;
41966;SDS011;27656;53.068;8.818;2023-03-31T16:48:24;6.53;;;1.90;;
41966;SDS011;27656;53.068;8.818;2023-03-31T16:50:54;8.87;;;1.93;;
41966;SDS011;27656;53.068;8.818;2023-03-31T16:53:23;4.63;;;2.03;;
41966;SDS011;27656;53.068;8.818;2023-03-31T16:55:54;4.67;;;1.87;;
41966;SDS011;27656;53.068;8.818;2023-03-31T16:58:22;4.43;;;2.10;;
41966;SDS011;27656;53.068;8.818;2023-03-31T17:00:49;4.67;;;2.00;;
41966;SDS011;27656;53.068;8.818;2023-03-31T17:03:16;4.73;;;2.20;;
41966;SDS011;27656;53.068;8.818;2023-03-31T17:05:47;6.37;;;1.90;;
41966;SDS011;27656;53.068;8.818;2023-03-31T17:08:18;11.53;;;4.30;;
41966;SDS011;27656;53.068;8.818;2023-03-31T17:10:52;9.97;;;4.10;;
41966;SDS011;27656;53.068;8.818;2023-03-31T17:13:20;9.53;;;3.27;;
41966;SDS011;27656;53.068;8.818;2023-03-31T17:15:47;8.27;;;2.90;;
41966;SDS011;27656;53.068;8.818;2023-03-31T17:18:14;7.13;;;2.53;;
41966;SDS011;27656;53.068;8.818;2023-03-31T17:20:42;10.27;;;3.33;;
41966;SDS011;27656;53.068;8.818;2023-03-31T17:23:08;5.77;;;2.63;;
41966;SDS011;27656;53.068;8.818;2023-03-31T17:25:35;5.47;;;2.60;;
41966;SDS011;27656;53.068;8.818;2023-03-31T17:28:02;8.37;;;2.87;;
41966;SDS011;27656;53.068;8.818;2023-03-31T17:30:29;6.00;;;2.53;;
41966;SDS011;27656;53.068;8.818;2023-03-31T17:32:57;5.07;;;2.50;;